Santanyi, Spain
Current Conditions -  °F | °C
As of 9:00 AM on Monday 26 Jan 2015 (Local Time) from LEPA Reporting Station
Scattered Clouds Scattered Clouds  
Wind Chill: 43°   Ceiling: Unl
Heat Index: 48°   Visibility: 6mi
Dew Point: 36°   Wind: 12mph
Humidity: 62%   Direction: 40°NE
Pressure: 30.3"   Gusts: NA
Location:  39.35°N, 3.13°E
Report Text: LEPA 260800Z 04010KT 9999 FEW030 SCT065 09/02 Q1026 NOSIG
Loading
Personal Weather Stations






























Interactive Weather Map New forecast layout! Learn more

10-Day Weather Forecast

Advertisements
Track Severe Weather on mobile